createdAt,value
2023-05-14T00:02:45.801Z,8.05
2023-05-14T00:06:27.834Z,8.35
2023-05-14T00:10:10.262Z,9.02
2023-05-14T00:13:52.249Z,8.73
2023-05-14T00:17:34.226Z,8.48
2023-05-14T00:21:17.161Z,8.90
2023-05-14T00:24:59.180Z,9.18
2023-05-14T00:28:41.110Z,8.93
2023-05-14T00:32:23.593Z,9.05
2023-05-14T00:36:05.775Z,8.43
2023-05-14T00:39:47.716Z,9.25
2023-05-14T00:43:29.680Z,9.30
2023-05-14T00:47:11.793Z,9.25
2023-05-14T00:50:54.007Z,8.63
2023-05-14T00:54:36.668Z,9.13
2023-05-14T00:58:19.477Z,9.95
2023-05-14T01:02:02.002Z,9.80
2023-05-14T01:05:52.894Z,9.15
2023-05-14T01:10:06.598Z,8.57
2023-05-14T01:14:08.324Z,8.77
2023-05-14T01:17:59.295Z,8.95
2023-05-14T01:21:43.908Z,9.15
2023-05-14T01:25:26.568Z,9.02
2023-05-14T01:29:22.623Z,8.43
2023-05-14T01:33:11.507Z,8.68
2023-05-14T01:36:53.960Z,8.77
2023-05-14T01:40:37.010Z,9.38
2023-05-14T01:44:19.311Z,9.02
2023-05-14T01:48:01.343Z,8.95
2023-05-14T01:51:43.309Z,8.48
2023-05-14T01:55:25.828Z,8.45
2023-05-14T01:59:07.820Z,9.32
2023-05-14T02:02:49.773Z,8.38
2023-05-14T02:06:32.311Z,8.25
2023-05-14T02:10:14.324Z,7.07
2023-05-14T02:13:56.257Z,6.07
2023-05-14T02:17:38.347Z,5.90
2023-05-14T02:21:20.685Z,5.65
2023-05-14T02:25:02.631Z,5.53
2023-05-14T02:28:45.703Z,5.65
2023-05-14T02:32:28.439Z,5.70
2023-05-14T02:36:10.634Z,6.00
2023-05-14T02:39:53.429Z,5.93
2023-05-14T02:43:35.365Z,5.68
2023-05-14T02:47:17.296Z,6.38
2023-05-14T02:50:59.220Z,7.70
2023-05-14T02:54:41.142Z,7.97
2023-05-14T02:58:25.052Z,8.27
2023-05-14T03:02:10.409Z,7.97
2023-05-14T03:05:52.681Z,8.65
2023-05-14T03:09:36.721Z,8.52
2023-05-14T03:13:20.669Z,9.38
2023-05-14T03:17:02.878Z,8.80
2023-05-14T03:20:44.941Z,8.73
2023-05-14T03:24:27.016Z,8.85
2023-05-14T03:28:09.823Z,8.68
2023-05-14T03:31:51.865Z,9.02
2023-05-14T03:35:33.861Z,12.82
2023-05-14T03:39:19.691Z,12.25
2023-05-14T03:43:01.681Z,12.13
2023-05-14T03:46:43.623Z,12.70
2023-05-14T03:50:25.798Z,12.13
2023-05-14T03:54:07.902Z,11.30
2023-05-14T03:57:49.857Z,10.55
2023-05-14T04:01:31.791Z,10.15
2023-05-14T04:05:13.711Z,10.05
2023-05-14T04:08:55.653Z,10.43
2023-05-14T04:12:37.619Z,10.50
2023-05-14T04:16:19.581Z,10.90
2023-05-14T04:20:01.556Z,10.27
2023-05-14T04:23:43.483Z,10.20
2023-05-14T04:27:25.490Z,9.80
2023-05-14T04:31:07.707Z,9.95
2023-05-14T04:34:49.697Z,9.93
2023-05-14T04:38:32.158Z,9.73
2023-05-14T04:42:14.067Z,8.52
2023-05-14T04:45:56.263Z,9.65
2023-05-14T04:49:38.247Z,9.05
2023-05-14T04:53:20.192Z,9.05
2023-05-14T04:57:03.386Z,9.52
2023-05-14T05:00:45.525Z,8.95
2023-05-14T05:04:28.027Z,9.60
2023-05-14T05:08:11.516Z,9.50
2023-05-14T05:11:53.542Z,9.25
2023-05-14T05:15:35.547Z,9.25
2023-05-14T05:19:17.633Z,9.13
2023-05-14T05:22:59.714Z,9.63
2023-05-14T05:26:41.785Z,8.88
2023-05-14T05:30:23.970Z,8.02
2023-05-14T05:34:06.117Z,8.60
2023-05-14T05:37:48.032Z,8.05
2023-05-14T05:41:30.311Z,8.45
2023-05-14T05:45:12.298Z,8.40
2023-05-14T05:48:54.266Z,8.70
2023-05-14T05:52:36.236Z,8.95
2023-05-14T05:56:18.166Z,8.57
2023-05-14T06:00:00.112Z,8.30
2023-05-14T06:03:42.147Z,8.27
2023-05-14T06:07:24.080Z,8.07
2023-05-14T06:11:06.090Z,8.32
2023-05-14T06:14:48.272Z,9.25
2023-05-14T06:18:30.258Z,9.57
2023-05-14T06:22:12.225Z,8.27
2023-05-14T06:25:54.234Z,8.20
2023-05-14T06:29:36.250Z,8.20
2023-05-14T06:33:20.565Z,8.10
2023-05-14T06:37:04.268Z,9.10
2023-05-14T06:40:46.221Z,9.00
2023-05-14T06:44:28.602Z,8.52
2023-05-14T06:48:10.832Z,8.88
2023-05-14T06:51:53.876Z,8.32
2023-05-14T06:55:36.044Z,8.55
2023-05-14T06:59:18.082Z,8.77
2023-05-14T07:03:00.038Z,8.57
2023-05-14T07:06:42.011Z,8.38
2023-05-14T07:10:24.346Z,7.97
2023-05-14T07:14:06.399Z,8.48
2023-05-14T07:17:48.458Z,7.53
2023-05-14T07:21:30.462Z,7.88
2023-05-14T07:25:12.900Z,7.43
2023-05-14T07:28:54.831Z,7.88
2023-05-14T07:32:36.880Z,7.88
2023-05-14T07:36:18.879Z,8.30
2023-05-14T07:40:00.806Z,7.50
2023-05-14T07:43:42.800Z,8.02
2023-05-14T07:47:24.849Z,8.05
2023-05-14T07:51:07.081Z,7.40
2023-05-14T07:54:50.750Z,7.82
2023-05-14T07:58:32.788Z,7.47
2023-05-14T08:02:16.397Z,7.63
2023-05-14T08:05:58.404Z,7.63
2023-05-14T08:09:40.369Z,7.90
2023-05-14T08:13:22.468Z,8.07
2023-05-14T08:17:04.732Z,7.93
2023-05-14T08:20:47.108Z,7.68
2023-05-14T08:24:29.223Z,8.35
2023-05-14T08:28:11.164Z,8.40
2023-05-14T08:31:53.091Z,8.50
2023-05-14T08:35:35.072Z,8.52
2023-05-14T08:39:17.038Z,7.85
2023-05-14T08:43:00.761Z,8.10
2023-05-14T08:46:42.735Z,9.32
2023-05-14T08:50:25.836Z,8.52
2023-05-14T08:54:08.064Z,8.50
2023-05-14T08:57:50.012Z,9.40
2023-05-14T09:01:32.191Z,9.40
2023-05-14T09:05:14.926Z,9.35
2023-05-14T09:08:57.033Z,9.82
2023-05-14T09:12:38.965Z,9.25
2023-05-14T09:16:21.490Z,9.68
2023-05-14T09:20:04.582Z,9.73
2023-05-14T09:23:47.860Z,10.02
2023-05-14T09:27:31.796Z,9.88
2023-05-14T09:31:13.765Z,10.07
2023-05-14T09:34:56.950Z,9.68
2023-05-14T09:38:38.884Z,9.77
2023-05-14T09:42:20.801Z,9.27
2023-05-14T09:46:02.931Z,9.60
2023-05-14T09:49:49.110Z,9.95
2023-05-14T09:53:32.597Z,10.05
2023-05-14T09:57:14.521Z,9.43
2023-05-14T10:00:58.713Z,9.18
2023-05-14T10:04:41.104Z,9.02
2023-05-14T10:08:27.633Z,8.20
2023-05-14T10:12:09.722Z,8.25
2023-05-14T10:16:11.423Z,8.07
2023-05-14T10:19:57.126Z,7.45
2023-05-14T10:23:40.535Z,7.28
2023-05-14T10:27:23.188Z,6.07
2023-05-14T10:31:05.205Z,5.57
2023-05-14T10:34:48.294Z,6.38
2023-05-14T10:38:33.075Z,5.90
2023-05-14T10:42:23.298Z,6.53
2023-05-14T10:46:06.177Z,5.47
2023-05-14T10:49:53.159Z,5.05
2023-05-14T10:53:43.116Z,4.57
2023-05-14T10:57:31.690Z,4.40
2023-05-14T11:01:14.375Z,3.58
2023-05-14T11:04:57.798Z,2.80
2023-05-14T11:08:41.051Z,2.63
2023-05-14T11:12:22.968Z,2.53
2023-05-14T11:16:18.960Z,2.83
2023-05-14T11:20:06.584Z,2.72
2023-05-14T11:23:48.875Z,2.65
2023-05-14T11:27:32.368Z,2.40
2023-05-14T11:31:15.279Z,2.00
2023-05-14T11:34:57.258Z,1.65
2023-05-14T11:38:49.112Z,1.60
2023-05-14T11:42:31.162Z,1.85
2023-05-14T11:46:19.729Z,1.75
2023-05-14T11:50:01.954Z,1.83
2023-05-14T11:53:45.659Z,2.00
2023-05-14T11:57:27.595Z,1.85
2023-05-14T12:01:14.057Z,1.70
2023-05-14T12:04:56.094Z,1.98
2023-05-14T12:08:38.156Z,1.95
2023-05-14T12:12:22.052Z,1.83
2023-05-14T12:16:05.378Z,1.80
2023-05-14T12:19:49.605Z,1.23
2023-05-14T12:23:32.783Z,1.23
2023-05-14T12:27:14.717Z,0.73
2023-05-14T12:30:57.754Z,0.60
2023-05-14T12:34:39.728Z,0.80
2023-05-14T12:38:21.650Z,0.40
2023-05-14T12:42:03.648Z,0.45
2023-05-14T12:45:45.894Z,0.40
2023-05-14T12:49:27.853Z,0.60
2023-05-14T12:53:09.841Z,0.40
2023-05-14T12:56:51.826Z,0.50
2023-05-14T13:00:33.787Z,0.40
2023-05-14T13:04:15.726Z,0.40
2023-05-14T13:08:00.382Z,0.40
2023-05-14T13:11:45.136Z,0.30
2023-05-14T13:15:27.108Z,0.30
2023-05-14T13:19:09.193Z,0.40
2023-05-14T13:22:51.203Z,0.50
2023-05-14T13:26:33.248Z,0.43
2023-05-14T13:30:15.580Z,0.45
2023-05-14T13:33:59.452Z,0.50
2023-05-14T13:37:42.944Z,0.50
2023-05-14T13:41:26.570Z,0.52
2023-05-14T13:45:09.311Z,0.30
2023-05-14T13:48:51.250Z,0.40
2023-05-14T13:52:33.223Z,0.40
2023-05-14T13:56:15.176Z,0.22
2023-05-14T13:59:57.118Z,0.20
2023-05-14T14:03:39.168Z,0.30
2023-05-14T14:07:21.322Z,0.20
2023-05-14T14:11:03.316Z,0.30
2023-05-14T14:14:45.251Z,0.22
2023-05-14T14:18:27.252Z,0.20
2023-05-14T14:22:09.274Z,0.40
2023-05-14T14:25:51.189Z,0.20
2023-05-14T14:29:33.115Z,0.20
2023-05-14T14:33:15.052Z,0.15
2023-05-14T14:36:57.106Z,0.20
2023-05-14T14:40:39.106Z,0.30
2023-05-14T14:44:21.053Z,0.38
2023-05-14T14:48:23.093Z,0.30
2023-05-14T14:52:05.309Z,0.40
2023-05-14T14:55:48.199Z,0.30
2023-05-14T14:59:30.133Z,0.40
2023-05-14T15:03:12.589Z,0.30
2023-05-14T15:06:54.577Z,0.30
2023-05-14T15:10:38.325Z,0.40
2023-05-14T15:14:20.377Z,0.40
2023-05-14T15:18:03.818Z,0.43
2023-05-14T15:21:45.952Z,0.30
2023-05-14T15:25:27.938Z,0.32
2023-05-14T15:29:09.944Z,0.30
2023-05-14T15:32:52.380Z,0.30
2023-05-14T15:36:34.334Z,0.50
2023-05-14T15:40:16.509Z,0.30
2023-05-14T15:43:58.691Z,0.43
2023-05-14T15:47:41.856Z,0.32
2023-05-14T15:51:23.937Z,0.60
2023-05-14T15:55:06.606Z,0.60
2023-05-14T15:58:49.139Z,0.52
2023-05-14T16:02:33.361Z,0.60
2023-05-14T16:06:15.506Z,0.50
2023-05-14T16:09:57.425Z,0.57
2023-05-14T16:13:42.403Z,0.70
2023-05-14T16:17:24.566Z,1.20
2023-05-14T16:21:06.667Z,1.10
2023-05-14T16:24:48.620Z,0.63
2023-05-14T16:28:30.569Z,0.60
2023-05-14T16:32:12.737Z,0.65
2023-05-14T16:35:54.800Z,0.80
2023-05-14T16:39:36.742Z,0.70
2023-05-14T16:43:18.685Z,0.63
2023-05-14T16:47:00.608Z,0.60
2023-05-14T16:50:42.523Z,0.55
2023-05-14T16:54:24.486Z,0.70
2023-05-14T16:58:06.546Z,0.50
2023-05-14T17:01:48.553Z,0.80
2023-05-14T17:05:30.579Z,0.68
2023-05-14T17:09:12.497Z,0.63
2023-05-14T17:12:54.430Z,0.75
2023-05-14T17:16:36.428Z,0.70
2023-05-14T17:20:18.556Z,0.70
2023-05-14T17:24:00.595Z,0.60
2023-05-14T17:27:42.601Z,0.70
2023-05-14T17:31:24.651Z,0.60
2023-05-14T17:35:06.902Z,0.70
2023-05-14T17:38:48.932Z,0.60
2023-05-14T17:42:31.175Z,0.80
2023-05-14T17:46:13.145Z,0.80
2023-05-14T17:49:55.167Z,0.82
2023-05-14T17:53:37.145Z,1.27
2023-05-14T17:57:19.119Z,1.05
2023-05-14T18:01:01.071Z,0.80
2023-05-14T18:04:43.072Z,0.88
2023-05-14T18:08:25.084Z,0.85
2023-05-14T18:12:07.532Z,0.70
2023-05-14T18:15:51.634Z,1.05
2023-05-14T18:19:33.619Z,1.02
2023-05-14T18:23:15.595Z,1.17
2023-05-14T18:26:57.674Z,0.88
2023-05-14T18:30:39.782Z,0.90
2023-05-14T18:34:21.815Z,1.15
2023-05-14T18:38:03.906Z,1.00
2023-05-14T18:41:45.823Z,1.00
2023-05-14T18:45:27.824Z,1.10
2023-05-14T18:49:09.855Z,1.30
2023-05-14T18:52:51.784Z,1.10
2023-05-14T18:56:36.948Z,1.30
2023-05-14T19:00:19.121Z,1.30
2023-05-14T19:04:03.125Z,1.42
2023-05-14T19:07:48.154Z,1.40
2023-05-14T19:11:30.118Z,1.55
2023-05-14T19:15:12.277Z,1.98
2023-05-14T19:18:54.238Z,1.88
2023-05-14T19:22:36.255Z,2.22
2023-05-14T19:26:18.190Z,2.42
2023-05-14T19:30:00.207Z,2.30
2023-05-14T19:33:42.257Z,2.30
2023-05-14T19:37:24.409Z,2.05
2023-05-14T19:41:06.362Z,1.95
2023-05-14T19:44:48.279Z,2.10
2023-05-14T19:48:31.325Z,1.83
2023-05-14T19:52:13.290Z,1.75
2023-05-14T19:55:56.174Z,1.80
2023-05-14T19:59:39.317Z,1.85
2023-05-14T20:03:26.144Z,1.80
2023-05-14T20:07:08.852Z,1.60
2023-05-14T20:10:50.795Z,1.52
2023-05-14T20:14:32.751Z,1.30
2023-05-14T20:18:15.118Z,1.20
2023-05-14T20:21:57.035Z,1.60
2023-05-14T20:25:38.996Z,1.30
2023-05-14T20:29:20.913Z,1.30
2023-05-14T20:33:02.898Z,1.23
2023-05-14T20:36:45.969Z,1.17
2023-05-14T20:40:27.927Z,1.40
2023-05-14T20:44:09.912Z,1.30
2023-05-14T20:47:51.963Z,1.15
2023-05-14T20:51:33.943Z,1.13
2023-05-14T20:55:16.084Z,1.38
2023-05-14T20:58:58.021Z,1.67
2023-05-14T21:02:40.115Z,1.23
2023-05-14T21:06:22.130Z,1.55
2023-05-14T21:10:04.685Z,1.30
2023-05-14T21:13:46.684Z,1.20
2023-05-14T21:17:28.699Z,1.10
2023-05-14T21:21:10.761Z,1.35
2023-05-14T21:24:52.699Z,1.00
2023-05-14T21:28:34.618Z,1.00
2023-05-14T21:32:16.593Z,1.20
2023-05-14T21:35:58.493Z,1.00
2023-05-14T21:39:41.004Z,1.30
2023-05-14T21:43:22.914Z,1.33
2023-05-14T21:47:05.358Z,1.20
2023-05-14T21:50:47.418Z,1.23
2023-05-14T21:54:29.450Z,1.30
2023-05-14T21:58:11.453Z,1.67
2023-05-14T22:02:06.083Z,1.00
2023-05-14T22:05:49.428Z,0.85
2023-05-14T22:09:31.439Z,0.98
2023-05-14T22:13:13.384Z,0.70
2023-05-14T22:16:55.557Z,0.82
2023-05-14T22:20:37.615Z,0.80
2023-05-14T22:24:19.583Z,1.27
2023-05-14T22:28:01.587Z,2.40
2023-05-14T22:31:44.031Z,2.60
2023-05-14T22:35:26.753Z,2.60
2023-05-14T22:39:10.581Z,2.63
2023-05-14T22:42:54.034Z,2.40
2023-05-14T22:46:36.035Z,2.72
2023-05-14T22:50:18.082Z,2.40
2023-05-14T22:54:00.038Z,2.40
2023-05-14T22:57:42.038Z,2.42
2023-05-14T23:01:24.051Z,2.40
2023-05-14T23:05:07.957Z,2.65
2023-05-14T23:08:49.907Z,2.95
2023-05-14T23:12:31.866Z,2.70
2023-05-14T23:16:13.891Z,2.50
2023-05-14T23:19:55.898Z,2.33
2023-05-14T23:23:37.899Z,2.40
2023-05-14T23:27:19.871Z,2.35
2023-05-14T23:31:03.186Z,2.50
2023-05-14T23:34:45.112Z,2.65
2023-05-14T23:38:27.182Z,2.42
2023-05-14T23:42:09.122Z,2.47
2023-05-14T23:45:51.170Z,2.78
2023-05-14T23:49:33.314Z,3.03
2023-05-14T23:53:15.334Z,3.15
2023-05-14T23:56:57.311Z,2.97
